createdAt,value
2023-02-18T00:01:42.587Z,5.53
2023-02-18T00:04:09.977Z,5.45
2023-02-18T00:06:38.839Z,5.44
2023-02-18T00:09:06.975Z,5.50
2023-02-18T00:11:36.811Z,5.47
2023-02-18T00:14:10.959Z,5.33
2023-02-18T00:16:38.287Z,5.30
2023-02-18T00:19:09.462Z,5.28
2023-02-18T00:21:37.273Z,5.15
2023-02-18T00:24:07.079Z,5.11
2023-02-18T00:26:35.585Z,5.17
2023-02-18T00:29:04.481Z,5.17
2023-02-18T00:31:36.842Z,5.06
2023-02-18T00:34:05.839Z,5.02
2023-02-18T00:36:35.587Z,4.94
2023-02-18T00:39:07.852Z,4.90
2023-02-18T00:41:36.518Z,4.89
2023-02-18T00:44:04.584Z,4.87
2023-02-18T00:46:32.748Z,4.85
2023-02-18T00:49:01.884Z,4.79
2023-02-18T00:51:29.146Z,4.78
2023-02-18T00:53:57.385Z,4.70
2023-02-18T00:56:24.776Z,4.66
2023-02-18T00:58:52.339Z,4.65
2023-02-18T01:01:20.719Z,4.58
2023-02-18T01:03:47.975Z,4.55
2023-02-18T01:06:15.362Z,4.57
2023-02-18T01:08:43.383Z,4.60
2023-02-18T01:11:12.658Z,4.62
2023-02-18T01:13:41.667Z,4.60
2023-02-18T01:16:09.934Z,4.58
2023-02-18T01:18:38.980Z,4.54
2023-02-18T01:21:09.067Z,4.46
2023-02-18T01:23:41.883Z,4.45
2023-02-18T01:26:11.623Z,4.46
2023-02-18T01:28:41.555Z,4.45
2023-02-18T01:31:13.906Z,4.48
2023-02-18T01:33:42.302Z,4.46
2023-02-18T01:36:11.831Z,4.39
2023-02-18T01:38:39.564Z,4.35
2023-02-18T01:41:08.045Z,4.34
2023-02-18T01:43:35.466Z,4.28
2023-02-18T01:46:18.185Z,4.23
2023-02-18T01:49:00.750Z,4.20
2023-02-18T01:51:40.358Z,4.14
2023-02-18T01:54:39.917Z,4.13
2023-02-18T01:57:14.706Z,4.13
2023-02-18T02:00:06.312Z,4.10
2023-02-18T02:02:47.618Z,4.06
2023-02-18T02:05:16.725Z,4.05
2023-02-18T02:07:46.397Z,4.06
2023-02-18T02:10:16.788Z,4.11
2023-02-18T02:13:13.071Z,4.01
2023-02-18T02:15:45.197Z,3.97
2023-02-18T02:18:50.236Z,3.96
2023-02-18T02:22:13.499Z,3.93
2023-02-18T02:25:14.693Z,3.92
2023-02-18T02:28:21.880Z,3.93
2023-02-18T02:31:35.914Z,3.90
2023-02-18T02:34:49.329Z,3.82
2023-02-18T02:37:42.690Z,3.76
2023-02-18T02:40:46.441Z,3.78
2023-02-18T02:43:29.300Z,3.74
2023-02-18T02:46:13.015Z,3.74
2023-02-18T02:48:51.465Z,3.81
2023-02-18T02:51:44.185Z,3.80
2023-02-18T02:54:21.635Z,3.72
2023-02-18T02:56:50.334Z,3.74
2023-02-18T02:59:27.156Z,3.75
2023-02-18T03:02:55.100Z,3.68
2023-02-18T03:05:57.859Z,3.66
2023-02-18T03:09:20.285Z,3.65
2023-02-18T03:12:58.288Z,3.69
2023-02-18T03:16:03.953Z,3.65
2023-02-18T03:18:46.183Z,3.66
2023-02-18T03:21:35.794Z,3.69
2023-02-18T03:24:21.468Z,3.65
2023-02-18T03:26:56.731Z,3.62
2023-02-18T03:29:25.025Z,3.59
2023-02-18T03:32:02.329Z,3.58
2023-02-18T03:34:36.593Z,3.56
2023-02-18T03:37:03.945Z,3.60
2023-02-18T03:39:35.242Z,3.55
2023-02-18T03:42:04.717Z,3.46
2023-02-18T03:44:32.303Z,3.51
2023-02-18T03:46:59.702Z,3.49
2023-02-18T03:49:26.925Z,3.52
2023-02-18T03:51:54.184Z,3.43
2023-02-18T03:54:21.567Z,3.35
2023-02-18T03:56:48.905Z,3.32
2023-02-18T03:59:16.145Z,3.31
2023-02-18T04:01:43.538Z,3.22
2023-02-18T04:04:11.005Z,3.20
2023-02-18T04:06:38.239Z,3.17
2023-02-18T04:09:08.877Z,3.06
2023-02-18T04:11:40.739Z,3.03
2023-02-18T04:14:09.436Z,2.98
2023-02-18T04:16:36.669Z,3.04
2023-02-18T04:19:04.056Z,3.03
2023-02-18T04:21:31.406Z,3.01
2023-02-18T04:23:59.088Z,3.04
2023-02-18T04:26:26.367Z,3.03
2023-02-18T04:28:54.662Z,3.02
2023-02-18T04:31:22.221Z,3.03
2023-02-18T04:33:49.647Z,2.95
2023-02-18T04:36:16.908Z,2.96
2023-02-18T04:38:44.174Z,2.93
2023-02-18T04:41:12.763Z,2.96
2023-02-18T04:43:40.010Z,2.91
2023-02-18T04:46:07.593Z,3.02
2023-02-18T04:48:35.279Z,2.90
2023-02-18T04:51:03.272Z,2.80
2023-02-18T04:53:30.548Z,2.79
2023-02-18T04:55:57.812Z,3.01
2023-02-18T04:58:25.195Z,2.88
2023-02-18T05:00:53.869Z,2.74
2023-02-18T05:03:21.560Z,2.69
2023-02-18T05:05:48.878Z,2.66
2023-02-18T05:08:16.353Z,2.67
2023-02-18T05:10:43.613Z,2.58
2023-02-18T05:13:10.948Z,2.53
2023-02-18T05:15:38.268Z,2.54
2023-02-18T05:18:05.841Z,2.59
2023-02-18T05:20:33.542Z,2.67
2023-02-18T05:23:00.764Z,2.67
2023-02-18T05:25:28.196Z,2.58
2023-02-18T05:27:55.493Z,2.66
2023-02-18T05:30:22.704Z,2.60
2023-02-18T05:32:50.020Z,2.54
2023-02-18T05:35:17.468Z,2.61
2023-02-18T05:37:44.708Z,2.57
2023-02-18T05:40:14.422Z,2.63
2023-02-18T05:42:41.708Z,2.63
2023-02-18T05:45:09.656Z,2.63
2023-02-18T05:47:37.027Z,2.60
2023-02-18T05:50:05.583Z,2.64
2023-02-18T05:52:32.815Z,2.66
2023-02-18T05:55:00.089Z,2.62
2023-02-18T05:57:27.296Z,2.57
2023-02-18T05:59:54.540Z,2.51
2023-02-18T06:02:21.846Z,2.57
2023-02-18T06:04:49.244Z,2.45
2023-02-18T06:07:16.620Z,2.41
2023-02-18T06:09:44.297Z,2.34
2023-02-18T06:12:11.531Z,2.35
2023-02-18T06:14:42.206Z,2.37
2023-02-18T06:17:12.185Z,2.39
2023-02-18T06:19:39.790Z,2.40
2023-02-18T06:22:08.078Z,2.49
2023-02-18T06:24:37.906Z,2.46
2023-02-18T06:27:05.353Z,2.42
2023-02-18T06:29:32.739Z,2.43
2023-02-18T06:32:00.399Z,2.51
2023-02-18T06:34:28.125Z,2.67
2023-02-18T06:36:55.486Z,2.66
2023-02-18T06:39:22.865Z,2.57
2023-02-18T06:41:50.029Z,2.53
2023-02-18T06:44:17.404Z,2.61
2023-02-18T06:46:45.228Z,2.69
2023-02-18T06:49:12.588Z,2.71
2023-02-18T06:51:39.767Z,2.72
2023-02-18T06:54:07.135Z,2.74
2023-02-18T06:56:34.437Z,2.85
2023-02-18T06:59:01.757Z,2.91
2023-02-18T07:01:30.011Z,2.95
2023-02-18T07:03:57.201Z,2.94
2023-02-18T07:06:24.561Z,2.96
2023-02-18T07:08:51.777Z,2.95
2023-02-18T07:11:18.983Z,2.97
2023-02-18T07:13:46.246Z,3.00
2023-02-18T07:16:13.584Z,3.07
2023-02-18T07:18:40.913Z,3.14
2023-02-18T07:21:08.236Z,3.22
2023-02-18T07:23:35.580Z,3.33
2023-02-18T07:26:10.604Z,3.37
2023-02-18T07:28:39.632Z,3.40
2023-02-18T07:31:07.480Z,3.45
2023-02-18T07:33:34.930Z,3.51
2023-02-18T07:36:03.970Z,3.53
2023-02-18T07:38:31.503Z,3.65
2023-02-18T07:40:59.628Z,3.77
2023-02-18T07:43:27.149Z,3.93
2023-02-18T07:45:55.124Z,4.04
2023-02-18T07:48:22.347Z,4.20
2023-02-18T07:50:49.632Z,4.36
2023-02-18T07:53:17.424Z,4.56
2023-02-18T07:55:50.690Z,4.58
2023-02-18T07:58:26.226Z,4.68
2023-02-18T08:00:54.638Z,4.80
2023-02-18T08:03:28.925Z,4.85
2023-02-18T08:05:57.647Z,4.92
2023-02-18T08:08:29.664Z,5.04
2023-02-18T08:11:18.108Z,5.15
2023-02-18T08:13:47.381Z,5.42
2023-02-18T08:16:20.854Z,5.49
2023-02-18T08:18:50.805Z,5.60
2023-02-18T08:21:20.966Z,5.77
2023-02-18T08:23:48.857Z,5.77
2023-02-18T08:26:17.122Z,5.86
2023-02-18T08:28:47.031Z,5.86
2023-02-18T08:31:30.402Z,5.87
2023-02-18T08:34:00.566Z,5.94
2023-02-18T08:36:30.394Z,6.04
2023-02-18T08:38:58.422Z,6.17
2023-02-18T08:41:25.604Z,6.29
2023-02-18T08:43:52.959Z,6.37
2023-02-18T08:46:33.191Z,6.39
2023-02-18T08:49:05.466Z,6.43
2023-02-18T08:51:33.578Z,6.49
2023-02-18T08:54:00.864Z,6.74
2023-02-18T08:56:28.270Z,6.92
2023-02-18T08:58:55.419Z,6.85
2023-02-18T09:01:22.733Z,6.88
2023-02-18T09:03:50.023Z,6.90
2023-02-18T09:06:17.224Z,6.99
2023-02-18T09:08:45.024Z,7.08
2023-02-18T09:11:12.427Z,7.19
2023-02-18T09:13:39.837Z,7.27
2023-02-18T09:16:13.434Z,7.43
2023-02-18T09:18:41.146Z,7.58
2023-02-18T09:21:11.949Z,7.71
2023-02-18T09:23:40.139Z,7.91
2023-02-18T09:26:11.896Z,8.18
2023-02-18T09:28:39.628Z,8.41
2023-02-18T09:31:16.156Z,8.52
2023-02-18T09:34:01.262Z,8.62
2023-02-18T09:36:29.370Z,8.67
2023-02-18T09:38:56.837Z,8.95
2023-02-18T09:41:39.905Z,9.06
2023-02-18T09:44:52.862Z,9.21
2023-02-18T09:47:39.854Z,9.48
2023-02-18T09:50:32.708Z,9.35
2023-02-18T09:53:03.464Z,9.54
2023-02-18T09:55:39.584Z,9.68
2023-02-18T09:58:21.831Z,10.10
2023-02-18T10:01:27.970Z,10.02
2023-02-18T10:04:01.802Z,10.20
2023-02-18T10:06:35.227Z,10.36
2023-02-18T10:09:22.990Z,10.51
2023-02-18T10:12:19.670Z,10.81
2023-02-18T10:14:55.338Z,11.09
2023-02-18T10:17:28.607Z,11.08
2023-02-18T10:19:58.537Z,11.03
2023-02-18T10:22:27.774Z,11.17
2023-02-18T10:25:00.768Z,11.20
2023-02-18T10:27:36.388Z,11.26
2023-02-18T10:30:24.859Z,11.45
2023-02-18T10:33:08.196Z,11.59
2023-02-18T10:35:46.039Z,11.83
2023-02-18T10:39:02.994Z,11.77
2023-02-18T10:42:19.844Z,11.79
2023-02-18T10:45:16.642Z,12.15
2023-02-18T10:48:15.969Z,14.96
2023-02-18T10:50:45.600Z,16.74
2023-02-18T10:53:31.506Z,17.45
2023-02-18T10:55:59.050Z,17.88
2023-02-18T10:58:46.518Z,18.19
2023-02-18T11:01:21.269Z,17.89
2023-02-18T11:04:05.545Z,16.54
2023-02-18T11:06:48.605Z,18.85
2023-02-18T11:09:46.525Z,19.04
2023-02-18T11:12:49.320Z,19.41
2023-02-18T11:15:26.114Z,19.02
2023-02-18T11:18:12.754Z,18.89
2023-02-18T11:20:40.677Z,20.05
2023-02-18T11:23:07.728Z,20.55
2023-02-18T11:25:41.201Z,20.54
2023-02-18T11:28:17.239Z,20.72
2023-02-18T11:30:53.351Z,20.24
2023-02-18T11:33:34.802Z,20.52
2023-02-18T11:36:24.103Z,19.62
2023-02-18T11:39:04.516Z,19.42
2023-02-18T11:41:44.684Z,18.35
2023-02-18T11:44:36.610Z,16.07
2023-02-18T11:47:13.223Z,15.18
2023-02-18T11:49:43.688Z,14.43
2023-02-18T11:52:35.648Z,13.84
2023-02-18T11:55:31.009Z,13.78
2023-02-18T11:58:05.621Z,14.04
2023-02-18T12:00:47.327Z,14.25
2023-02-18T12:04:01.347Z,13.97
2023-02-18T12:06:57.389Z,13.91
2023-02-18T12:09:37.528Z,13.87
2023-02-18T12:12:14.555Z,13.90
2023-02-18T12:14:41.869Z,13.82
2023-02-18T12:17:30.857Z,13.70
2023-02-18T12:20:38.522Z,13.98
2023-02-18T12:23:43.082Z,14.00
2023-02-18T12:26:37.288Z,13.83
2023-02-18T12:29:51.486Z,14.03
2023-02-18T12:32:52.691Z,13.90
2023-02-18T12:36:12.655Z,13.97
2023-02-18T12:38:56.117Z,13.82
2023-02-18T12:41:57.348Z,14.06
2023-02-18T12:45:38.691Z,13.97
2023-02-18T12:48:55.456Z,14.15
2023-02-18T12:51:56.976Z,14.35
2023-02-18T12:54:47.737Z,14.12
2023-02-18T12:57:44.044Z,13.99
2023-02-18T13:00:32.604Z,14.16
2023-02-18T13:03:38.874Z,14.28
2023-02-18T13:06:47.559Z,14.13
2023-02-18T13:09:38.677Z,14.10
2023-02-18T13:12:47.893Z,14.14
2023-02-18T13:15:41.118Z,14.16
2023-02-18T13:18:40.843Z,14.33
2023-02-18T13:21:13.713Z,13.91
2023-02-18T13:24:12.092Z,13.92
2023-02-18T13:26:41.826Z,14.09
2023-02-18T13:29:35.160Z,14.26
2023-02-18T13:32:29.755Z,14.39
2023-02-18T13:35:27.561Z,14.35
2023-02-18T13:38:17.687Z,14.36
2023-02-18T13:40:45.512Z,14.57
2023-02-18T13:43:35.703Z,14.60
2023-02-18T13:46:20.474Z,14.60
2023-02-18T13:49:01.137Z,14.72
2023-02-18T13:51:44.607Z,14.87
2023-02-18T13:54:17.553Z,14.84
2023-02-18T13:57:07.806Z,14.93
2023-02-18T13:59:44.434Z,14.88
2023-02-18T14:02:20.809Z,15.16
2023-02-18T14:05:08.674Z,14.91
2023-02-18T14:07:44.200Z,14.99
2023-02-18T14:10:16.994Z,14.90
2023-02-18T14:12:56.168Z,15.34
2023-02-18T14:15:23.342Z,15.20
2023-02-18T14:18:13.704Z,14.94
2023-02-18T14:20:40.728Z,15.26
2023-02-18T14:23:22.627Z,15.29
2023-02-18T14:26:12.475Z,15.19
2023-02-18T14:28:47.858Z,15.26
2023-02-18T14:31:46.218Z,15.22
2023-02-18T14:35:17.883Z,15.45
2023-02-18T14:38:23.628Z,15.39
2023-02-18T14:41:46.432Z,15.35
2023-02-18T14:45:09.926Z,15.32
2023-02-18T14:48:24.699Z,15.46
2023-02-18T14:50:53.252Z,15.26
2023-02-18T14:53:25.148Z,15.60
2023-02-18T14:56:01.975Z,15.71
2023-02-18T14:58:43.134Z,15.63
2023-02-18T15:01:33.069Z,15.64
2023-02-18T15:04:03.032Z,15.63
2023-02-18T15:06:37.584Z,15.65
2023-02-18T15:09:20.471Z,15.62
2023-02-18T15:12:00.800Z,15.98
2023-02-18T15:14:39.755Z,16.21
2023-02-18T15:17:15.699Z,16.91
2023-02-18T15:19:50.726Z,17.11
2023-02-18T15:22:27.053Z,17.57
2023-02-18T15:24:55.856Z,18.76
2023-02-18T15:27:39.222Z,19.41
2023-02-18T15:30:31.201Z,20.09
2023-02-18T15:33:01.179Z,20.58
2023-02-18T15:35:33.275Z,20.54
2023-02-18T15:38:01.907Z,21.14
2023-02-18T15:40:37.538Z,21.07
2023-02-18T15:43:06.579Z,21.50
2023-02-18T15:45:44.731Z,21.61
2023-02-18T15:48:44.465Z,21.26
2023-02-18T15:51:22.209Z,21.85
2023-02-18T15:53:55.086Z,21.82
2023-02-18T15:56:36.833Z,21.13
2023-02-18T15:59:17.463Z,21.27
2023-02-18T16:01:57.768Z,21.39
2023-02-18T16:04:33.811Z,20.75
2023-02-18T16:07:20.466Z,20.44
2023-02-18T16:09:47.721Z,20.27
2023-02-18T16:12:32.399Z,19.65
2023-02-18T16:15:00.924Z,19.06
2023-02-18T16:17:29.930Z,18.71
2023-02-18T16:20:24.749Z,18.76
2023-02-18T16:22:55.002Z,18.26
2023-02-18T16:25:35.831Z,17.57
2023-02-18T16:28:07.050Z,16.12
2023-02-18T16:30:35.616Z,16.24
2023-02-18T16:33:03.449Z,16.27
2023-02-18T16:35:47.456Z,15.03
2023-02-18T16:38:24.476Z,14.87
2023-02-18T16:40:54.199Z,14.99
2023-02-18T16:43:27.307Z,14.89
2023-02-18T16:45:59.305Z,14.30
2023-02-18T16:48:40.513Z,14.33
2023-02-18T16:51:17.995Z,14.41
2023-02-18T16:53:47.675Z,13.91
2023-02-18T16:56:32.678Z,14.22
2023-02-18T16:59:00.115Z,13.97
2023-02-18T17:01:31.842Z,13.61
2023-02-18T17:04:02.063Z,13.39
2023-02-18T17:06:29.948Z,13.52
2023-02-18T17:08:57.229Z,13.36
2023-02-18T17:11:32.541Z,13.35
2023-02-18T17:14:00.604Z,13.40
2023-02-18T17:16:28.808Z,13.38
2023-02-18T17:18:56.074Z,13.00
2023-02-18T17:21:25.723Z,12.73
2023-02-18T17:23:53.687Z,12.54
2023-02-18T17:26:27.835Z,12.29
2023-02-18T17:28:59.048Z,12.21
2023-02-18T17:31:44.328Z,12.16
2023-02-18T17:34:25.534Z,12.35
2023-02-18T17:36:52.763Z,12.14
2023-02-18T17:39:21.301Z,11.81
2023-02-18T17:41:48.707Z,12.03
2023-02-18T17:44:25.965Z,11.65
2023-02-18T17:46:54.785Z,11.68
2023-02-18T17:49:22.558Z,11.96
2023-02-18T17:51:53.101Z,11.86
2023-02-18T17:54:22.803Z,11.76
2023-02-18T17:56:50.286Z,11.76
2023-02-18T17:59:17.502Z,11.87
2023-02-18T18:01:44.789Z,11.67
2023-02-18T18:04:19.001Z,11.66
2023-02-18T18:06:47.047Z,11.56
2023-02-18T18:09:14.442Z,11.50
2023-02-18T18:11:41.708Z,11.43
2023-02-18T18:14:14.200Z,11.28
2023-02-18T18:16:41.393Z,11.29
2023-02-18T18:19:08.603Z,11.43
2023-02-18T18:21:36.767Z,11.30
2023-02-18T18:24:04.980Z,11.11
2023-02-18T18:26:32.293Z,11.13
2023-02-18T18:28:59.815Z,10.98
2023-02-18T18:31:27.061Z,11.03
2023-02-18T18:33:54.384Z,11.11
2023-02-18T18:36:24.078Z,11.07
2023-02-18T18:38:52.025Z,10.83
2023-02-18T18:41:23.184Z,10.96
2023-02-18T18:43:50.968Z,10.81
2023-02-18T18:46:18.706Z,11.06
2023-02-18T18:48:46.112Z,10.93
2023-02-18T18:51:23.250Z,10.65
2023-02-18T18:53:50.491Z,10.63
2023-02-18T18:56:17.711Z,10.66
2023-02-18T18:58:44.941Z,10.69
2023-02-18T19:01:20.735Z,10.48
2023-02-18T19:03:48.801Z,10.45
2023-02-18T19:06:17.096Z,10.38
2023-02-18T19:08:45.515Z,10.50
2023-02-18T19:11:14.318Z,10.33
2023-02-18T19:13:42.275Z,10.44
2023-02-18T19:16:29.523Z,10.41
2023-02-18T19:18:56.728Z,10.34
2023-02-18T19:21:23.912Z,10.28
2023-02-18T19:23:51.184Z,10.39
2023-02-18T19:26:18.433Z,10.30
2023-02-18T19:28:46.811Z,10.38
2023-02-18T19:31:14.629Z,10.19
2023-02-18T19:33:45.490Z,10.34
2023-02-18T19:36:14.697Z,10.27
2023-02-18T19:38:41.913Z,10.28
2023-02-18T19:41:13.757Z,10.15
2023-02-18T19:43:42.685Z,10.10
2023-02-18T19:46:14.008Z,10.20
2023-02-18T19:48:42.501Z,10.20
2023-02-18T19:51:10.656Z,9.99
2023-02-18T19:53:38.342Z,9.93
2023-02-18T19:56:07.312Z,10.15
2023-02-18T19:58:35.805Z,10.14
2023-02-18T20:01:03.816Z,10.06
2023-02-18T20:03:31.099Z,10.05
2023-02-18T20:05:58.308Z,9.95
2023-02-18T20:08:25.543Z,10.02
2023-02-18T20:11:00.030Z,9.83
2023-02-18T20:13:29.024Z,9.81
2023-02-18T20:15:58.043Z,9.82
2023-02-18T20:18:25.477Z,9.53
2023-02-18T20:20:52.655Z,9.31
2023-02-18T20:23:19.977Z,9.28
2023-02-18T20:25:47.592Z,9.24
2023-02-18T20:28:15.898Z,9.36
2023-02-18T20:30:44.164Z,9.15
2023-02-18T20:33:11.529Z,8.99
2023-02-18T20:35:38.733Z,8.82
2023-02-18T20:38:05.988Z,8.73
2023-02-18T20:40:33.146Z,8.78
2023-02-18T20:43:00.530Z,8.72
2023-02-18T20:45:27.952Z,8.68
2023-02-18T20:47:55.242Z,8.53
2023-02-18T20:50:22.442Z,8.41
2023-02-18T20:52:49.629Z,8.36
2023-02-18T20:55:16.979Z,8.37
2023-02-18T20:57:44.224Z,8.30
2023-02-18T21:00:13.098Z,8.23
2023-02-18T21:02:40.375Z,8.22
2023-02-18T21:05:08.238Z,8.16
2023-02-18T21:07:35.541Z,8.08
2023-02-18T21:10:04.100Z,8.04
2023-02-18T21:12:31.299Z,8.01
2023-02-18T21:15:01.128Z,8.00
2023-02-18T21:17:28.401Z,7.98
2023-02-18T21:19:55.622Z,7.87
2023-02-18T21:22:22.860Z,7.80
2023-02-18T21:24:51.579Z,7.76
2023-02-18T21:27:18.831Z,7.70
2023-02-18T21:29:46.155Z,7.67
2023-02-18T21:32:13.542Z,7.71
2023-02-18T21:34:41.405Z,7.67
2023-02-18T21:37:08.898Z,7.60
2023-02-18T21:39:36.179Z,7.57
2023-02-18T21:42:04.572Z,7.46
2023-02-18T21:44:41.788Z,7.46
2023-02-18T21:47:10.578Z,7.40
2023-02-18T21:49:38.011Z,7.44
2023-02-18T21:52:08.602Z,7.39
2023-02-18T21:54:44.385Z,7.32
2023-02-18T21:57:19.771Z,7.32
2023-02-18T21:59:48.122Z,7.21
2023-02-18T22:02:21.782Z,7.11
2023-02-18T22:04:50.752Z,7.07
2023-02-18T22:07:19.702Z,7.02
2023-02-18T22:09:48.794Z,7.05
2023-02-18T22:12:17.006Z,7.02
2023-02-18T22:14:44.768Z,6.98
2023-02-18T22:17:12.538Z,6.98
2023-02-18T22:19:40.233Z,6.99
2023-02-18T22:22:07.696Z,6.89
2023-02-18T22:24:35.207Z,6.83
2023-02-18T22:27:02.704Z,6.76
2023-02-18T22:29:31.865Z,6.71
2023-02-18T22:31:59.603Z,6.66
2023-02-18T22:34:26.966Z,6.61
2023-02-18T22:36:54.213Z,6.60
2023-02-18T22:39:24.312Z,6.63
2023-02-18T22:41:51.585Z,6.67
2023-02-18T22:44:19.125Z,6.62
2023-02-18T22:46:46.433Z,6.60
2023-02-18T22:49:14.288Z,6.61
2023-02-18T22:51:44.336Z,6.52
2023-02-18T22:54:16.225Z,6.48
2023-02-18T22:56:46.271Z,6.56
2023-02-18T22:59:19.415Z,6.56
2023-02-18T23:01:49.508Z,6.61
2023-02-18T23:04:20.981Z,6.60
2023-02-18T23:06:49.690Z,6.57
2023-02-18T23:09:25.085Z,6.59
2023-02-18T23:11:57.365Z,6.58
2023-02-18T23:14:28.113Z,6.56
2023-02-18T23:17:13.801Z,6.47
2023-02-18T23:19:53.884Z,6.39
2023-02-18T23:22:33.399Z,6.35
2023-02-18T23:25:01.911Z,6.38
2023-02-18T23:27:30.302Z,6.36
2023-02-18T23:29:57.460Z,6.35
2023-02-18T23:32:27.686Z,6.33
2023-02-18T23:34:54.902Z,6.32
2023-02-18T23:37:43.825Z,6.30
2023-02-18T23:40:13.668Z,6.18
2023-02-18T23:42:40.995Z,6.21
2023-02-18T23:45:08.678Z,6.21
2023-02-18T23:47:35.869Z,6.16
2023-02-18T23:50:03.193Z,6.27
2023-02-18T23:52:30.609Z,6.35
2023-02-18T23:54:57.748Z,6.31
2023-02-18T23:57:25.038Z,6.22
2023-02-18T23:59:52.219Z,6.15
